Time;durP1;ratioP1;P1;durP2;ratioP2;P2;SDS_P1;SDS_P2;PMS_P1;PMS_P2;Temp;Humidity;BMP_temperature;BMP_pressure;BME280_temperature;BME280_humidity;BME280_pressure;Samples;Min_cycle;Max_cycle;Signal;HPM_P1;HPM_P2
2023/08/31 00:00:41;;;;;;;5.50;2.20;;;14.20;99.90;;;;;;4993636;28;20042;-86
2023/08/31 00:03:08;;;;;;;5.88;2.40;;;14.20;99.90;;;;;;4999081;28;20027;-87
2023/08/31 00:05:37;;;;;;;5.18;2.10;;;14.10;99.90;;;;;;5001680;28;20050;-88
2023/08/31 00:08:03;;;;;;;6.68;2.58;;;14.80;99.90;;;;;;5001383;28;20019;-87
2023/08/31 00:10:29;;;;;;;6.25;2.80;;;14.20;99.90;;;;;;5000010;28;20027;-88
2023/08/31 00:12:55;;;;;;;7.85;2.70;;;14.70;99.90;;;;;;5001042;28;20034;-87
2023/08/31 00:15:21;;;;;;;5.43;2.53;;;14.20;99.90;;;;;;5003377;28;20050;-88
2023/08/31 00:17:47;;;;;;;9.90;3.13;;;;;;;;;;5001375;28;20455;-88
2023/08/31 00:20:13;;;;;;;9.85;2.63;;;14.10;99.90;;;;;;5001149;28;20030;-88
2023/08/31 00:22:38;;;;;;;5.47;2.38;;;14.50;99.90;;;;;;4988028;28;20515;-89
2023/08/31 00:25:11;;;;;;;4.95;2.47;;;14.00;99.90;;;;;;5004031;28;20030;-88
2023/08/31 00:27:40;;;;;;;6.97;2.35;;;14.00;99.90;;;;;;5002254;28;20026;-88
2023/08/31 00:30:10;;;;;;;9.82;3.53;;;16.40;99.90;;;;;;4986702;28;20031;-85
2023/08/31 00:32:36;;;;;;;6.10;2.58;;;14.00;99.90;;;;;;4984425;28;20392;-88
2023/08/31 00:35:03;;;;;;;8.40;3.03;;;;;;;;;;4998124;28;20034;-89
2023/08/31 00:37:29;;;;;;;7.80;2.67;;;;;;;;;;5002789;28;20026;-88
2023/08/31 00:39:55;;;;;;;7.93;2.80;;;14.00;99.90;;;;;;5001702;28;20042;-89
2023/08/31 00:42:21;;;;;;;8.90;3.00;;;;;;;;;;5000176;28;20034;-89
2023/08/31 00:44:48;;;;;;;6.07;2.50;;;14.00;99.90;;;;;;5003259;28;20032;-89
2023/08/31 00:47:14;;;;;;;7.68;3.03;;;;;;;;;;4999563;28;20045;-87
2023/08/31 00:49:41;;;;;;;9.00;2.83;;;14.00;99.90;;;;;;5003295;28;20050;-88
2023/08/31 00:52:07;;;;;;;6.80;3.22;;;13.90;99.90;;;;;;5003902;28;20042;-86
2023/08/31 00:54:34;;;;;;;7.97;3.38;;;15.50;99.90;;;;;;5000884;28;20116;-89
2023/08/31 00:57:00;;;;;;;6.90;3.03;;;13.90;99.90;;;;;;5002004;28;20685;-88
2023/08/31 00:59:26;;;;;;;8.07;2.90;;;15.00;99.90;;;;;;4996843;28;20026;-86
2023/08/31 01:01:52;;;;;;;4.78;2.80;;;;;;;;;;4980930;28;20595;-88
2023/08/31 01:04:43;;;;;;;5.88;2.83;;;13.80;99.90;;;;;;5000214;28;20036;-87
2023/08/31 01:07:08;;;;;;;;;;;13.80;99.90;;;;;;5003323;28;20018;-88
2023/08/31 01:10:05;;;;;;;6.30;2.60;;;13.70;99.90;;;;;;5003239;28;19917;-87
2023/08/31 01:12:49;;;;;;;4.93;2.53;;;13.70;99.90;;;;;;5001824;28;20042;-84
2023/08/31 01:15:16;;;;;;;5.47;3.10;;;13.70;99.90;;;;;;4981108;28;20030;-87
2023/08/31 01:17:50;;;;;;;8.25;2.67;;;13.70;99.90;;;;;;4999885;28;20038;-85
2023/08/31 01:20:27;;;;;;;6.50;2.90;;;13.70;99.90;;;;;;4997392;28;20098;-87
2023/08/31 01:23:03;;;;;;;6.93;2.60;;;13.60;99.90;;;;;;5004112;28;20031;-88
2023/08/31 01:25:30;;;;;;;6.28;2.60;;;13.70;99.90;;;;;;4996850;28;20030;-86
2023/08/31 01:27:58;;;;;;;6.45;2.35;;;13.70;99.90;;;;;;5001820;28;20034;-85
2023/08/31 01:30:23;;;;;;;6.43;2.30;;;13.80;99.90;;;;;;5004314;28;20019;-89
2023/08/31 01:32:49;;;;;;;5.00;2.60;;;13.20;99.90;;;;;;5001893;28;20034;-88
2023/08/31 01:35:19;;;;;;;7.55;2.63;;;15.10;99.90;;;;;;4999460;28;20042;-85
2023/08/31 01:40:58;;;;;;;4.65;2.42;;;13.80;99.90;;;;;;4145116;26;20085;-82
2023/08/31 01:43:24;;;;;;;6.80;2.70;;;;;;;;;;5036619;28;20034;-83
2023/08/31 01:45:50;;;;;;;5.75;2.38;;;13.80;99.90;;;;;;5010832;28;20494;-84
2023/08/31 01:48:16;;;;;;;8.55;3.03;;;13.70;99.90;;;;;;5001914;28;20117;-83
2023/08/31 01:50:41;;;;;;;6.43;2.97;;;13.70;99.90;;;;;;5001296;28;20119;-82
2023/08/31 01:53:08;;;;;;;7.18;2.67;;;;;;;;;;5016633;28;20072;-82
2023/08/31 01:55:33;;;;;;;5.68;2.42;;;13.70;99.90;;;;;;5000834;28;20028;-84
2023/08/31 01:58:00;;;;;;;5.50;2.65;;;;;;;;;;5017681;28;20108;-82
2023/08/31 02:00:28;;;;;;;5.57;2.70;;;;;;;;;;5020819;28;20029;-83
2023/08/31 02:02:54;;;;;;;8.02;3.00;;;;;;;;;;5016558;28;20106;-81
2023/08/31 02:05:20;;;;;;;6.70;3.00;;;;;;;;;;5017613;28;20053;-81
2023/08/31 02:07:45;;;;;;;7.22;2.72;;;13.60;99.90;;;;;;5006382;28;20029;-84
2023/08/31 02:10:11;;;;;;;6.68;3.10;;;13.60;99.90;;;;;;5008211;28;20026;-82
2023/08/31 02:12:37;;;;;;;8.02;2.85;;;13.50;99.90;;;;;;4993735;28;20034;-82
2023/08/31 02:15:05;;;;;;;4.32;2.22;;;13.60;99.90;;;;;;5011897;28;20041;-82
2023/08/31 02:17:31;;;;;;;5.45;2.80;;;;;;;;;;4993820;28;20116;-82
2023/08/31 02:19:57;;;;;;;6.10;2.45;;;;;;;;;;5004348;28;20121;-82
2023/08/31 02:22:23;;;;;;;4.63;2.17;;;;;;;;;;5004891;28;20026;-82
2023/08/31 02:24:49;;;;;;;5.03;2.50;;;13.50;99.90;;;;;;5004218;28;20022;-80
2023/08/31 02:27:15;;;;;;;6.30;2.72;;;15.30;99.90;;;;;;5010968;28;20065;-82
2023/08/31 02:29:41;;;;;;;5.93;2.50;;;;;;;;;;5012860;28;20030;-83
2023/08/31 02:32:07;;;;;;;5.07;2.80;;;13.50;99.90;;;;;;5012015;28;20279;-85
2023/08/31 02:34:33;;;;;;;7.07;2.47;;;;;;;;;;5012618;28;20034;-84
2023/08/31 02:36:59;;;;;;;4.45;2.30;;;;;;;;;;4995509;28;20048;-82
2023/08/31 02:39:24;;;;;;;8.43;2.72;;;13.60;99.90;;;;;;5013611;28;20039;-82
2023/08/31 02:41:50;;;;;;;5.80;2.63;;;;;;;;;;5017486;28;20471;-84
2023/08/31 02:44:16;;;;;;;6.50;2.80;;;;;;;;;;5027584;28;20042;-85
2023/08/31 02:46:42;;;;;;;4.78;2.40;;;;;;;;;;5027980;28;20030;-84
2023/08/31 02:49:08;;;;;;;5.32;2.92;;;;;;;;;;5021544;28;20014;-82
2023/08/31 02:51:34;;;;;;;4.93;2.58;;;13.60;99.90;;;;;;5018510;28;20125;-82
2023/08/31 02:54:00;;;;;;;9.10;2.70;;;15.80;99.90;;;;;;4996546;28;20030;-82
2023/08/31 02:56:28;;;;;;;4.97;2.60;;;14.40;99.90;;;;;;5011170;28;20485;-81
2023/08/31 02:58:54;;;;;;;7.72;2.63;;;13.90;99.90;;;;;;5015446;28;20060;-82
2023/08/31 03:01:19;;;;;;;5.65;2.63;;;15.30;99.90;;;;;;5008393;28;20034;-81
2023/08/31 03:03:45;;;;;;;5.25;2.30;;;13.60;99.90;;;;;;5007154;28;20030;-82
2023/08/31 03:06:11;;;;;;;5.40;2.80;;;13.70;99.90;;;;;;5013435;28;20044;-82
2023/08/31 03:08:37;;;;;;;6.63;3.00;;;13.50;99.90;;;;;;5015288;28;20029;-83
2023/08/31 03:11:05;;;;;;;11.10;2.97;;;13.60;99.90;;;;;;5018324;28;20026;-82
2023/08/31 03:13:35;;;;;;;7.30;2.88;;;13.50;99.90;;;;;;5000019;28;20044;-82
2023/08/31 03:16:02;;;;;;;10.50;3.35;;;13.50;99.90;;;;;;5014918;28;20060;-83
2023/08/31 03:18:29;;;;;;;7.63;2.47;;;14.50;99.90;;;;;;5001773;28;20399;-82
2023/08/31 03:20:55;;;;;;;7.50;3.17;;;11.40;99.90;;;;;;4994006;28;20034;-82
2023/08/31 03:23:21;;;;;;;7.72;2.88;;;13.40;99.90;;;;;;4996588;28;20021;-82
2023/08/31 03:25:47;;;;;;;7.05;3.05;;;;;;;;;;5007615;28;20117;-82
2023/08/31 03:28:13;;;;;;;6.38;2.97;;;13.40;99.90;;;;;;5015678;28;20030;-82
2023/08/31 03:30:38;;;;;;;5.95;2.58;;;13.40;99.90;;;;;;4996129;28;20026;-83
2023/08/31 03:33:04;;;;;;;6.43;2.80;;;13.50;99.90;;;;;;5011478;28;20125;-82
2023/08/31 03:35:32;;;;;;;7.18;2.78;;;13.40;99.90;;;;;;5008979;28;20030;-84
2023/08/31 03:37:58;;;;;;;6.45;2.67;;;13.40;99.90;;;;;;5010982;28;20034;-82
2023/08/31 03:40:23;;;;;;;9.18;2.85;;;13.40;99.90;;;;;;4990039;28;20844;-83
2023/08/31 03:42:53;;;;;;;10.10;2.83;;;13.40;99.90;;;;;;4990286;28;20033;-83
2023/08/31 03:45:19;;;;;;;6.47;3.08;;;13.30;99.90;;;;;;4994741;28;20076;-83
2023/08/31 03:47:45;;;;;;;8.10;3.17;;;;;;;;;;5006154;28;20030;-82
2023/08/31 03:50:11;;;;;;;10.93;2.80;;;;;;;;;;4992814;28;20495;-81
2023/08/31 03:52:37;;;;;;;7.70;2.70;;;13.40;99.90;;;;;;5013229;28;20034;-81
2023/08/31 03:55:06;;;;;;;7.07;2.70;;;13.30;99.90;;;;;;5005806;28;20037;-82
2023/08/31 03:57:31;;;;;;;6.70;2.75;;;13.30;99.90;;;;;;5012013;28;20030;-82
2023/08/31 04:00:08;;;;;;;9.82;4.05;;;;;;;;;;5016878;28;20045;-80
2023/08/31 04:02:37;;;;;;;6.15;2.85;;;13.20;99.90;;;;;;5011952;28;20080;-82
2023/08/31 04:05:05;;;;;;;9.80;3.10;;;13.20;99.90;;;;;;4980984;28;20029;-82
2023/08/31 04:07:38;;;;;;;8.88;2.70;;;13.20;99.90;;;;;;5011384;28;20309;-80
2023/08/31 04:10:04;;;;;;;7.70;3.40;;;13.20;99.90;;;;;;4992512;28;20030;-82
2023/08/31 04:12:49;;;;;;;8.13;3.00;;;13.20;99.90;;;;;;5003210;28;20042;-83
2023/08/31 04:15:14;;;;;;;7.60;3.30;;;13.20;99.90;;;;;;5000130;28;20381;-81
2023/08/31 04:17:40;;;;;;;4.97;2.65;;;;;;;;;;5017420;28;20036;-82
2023/08/31 04:20:07;;;;;;;7.25;3.20;;;13.20;99.90;;;;;;5024452;28;20033;-81
2023/08/31 04:22:39;;;;;;;7.75;2.72;;;13.20;99.90;;;;;;5017682;28;20520;-81
2023/08/31 04:28:04;;;;;;;7.93;3.08;;;17.50;99.90;;;;;;5004758;28;20053;-81
2023/08/31 04:30:34;;;;;;;8.50;3.20;;;13.20;99.90;;;;;;5014320;28;20030;-79
2023/08/31 04:32:59;;;;;;;7.15;2.50;;;13.10;99.90;;;;;;5016081;28;20060;-80
2023/08/31 04:35:25;;;;;;;12.63;3.42;;;13.10;99.90;;;;;;5008162;28;20029;-81
2023/08/31 04:37:51;;;;;;;8.43;3.00;;;15.90;99.90;;;;;;5004407;28;20044;-82
2023/08/31 04:40:16;;;;;;;7.90;2.88;;;13.00;99.90;;;;;;5023699;28;20022;-82
2023/08/31 04:42:42;;;;;;;5.88;3.13;;;13.00;99.90;;;;;;5036374;28;20101;-81
2023/08/31 04:45:12;;;;;;;10.10;2.97;;;13.00;99.90;;;;;;5019818;28;20138;-83
2023/08/31 04:47:38;;;;;;;7.30;3.20;;;13.00;99.90;;;;;;5037752;28;20049;-83
2023/08/31 04:50:06;;;;;;;7.93;2.80;;;13.10;99.90;;;;;;5003196;28;20308;-80
2023/08/31 04:52:32;;;;;;;8.18;3.30;;;13.00;99.90;;;;;;4988375;28;20081;-81
2023/08/31 04:54:58;;;;;;;6.78;2.90;;;13.00;99.90;;;;;;5001765;28;20030;-82
2023/08/31 04:57:24;;;;;;;7.78;3.10;;;13.00;99.90;;;;;;5007821;28;20498;-81
2023/08/31 04:59:50;;;;;;;6.65;3.05;;;12.90;99.90;;;;;;5003904;28;20077;-81
2023/08/31 05:02:21;;;;;;;6.63;2.92;;;12.90;99.90;;;;;;5019800;28;20037;-81
2023/08/31 05:04:57;;;;;;;6.55;3.20;;;12.80;99.90;;;;;;4998363;28;20145;-81
2023/08/31 05:07:30;;;;;;;6.50;2.90;;;12.80;99.90;;;;;;5025599;28;20082;-80
2023/08/31 05:13:48;;;;;;;7.93;3.63;;;12.70;99.90;;;;;;5014073;28;20088;-80
2023/08/31 05:16:41;;;;;;;8.90;3.20;;;12.70;99.90;;;;;;5001533;28;20039;-79
2023/08/31 05:19:18;;;;;;;9.40;3.40;;;12.70;99.90;;;;;;5023058;28;20048;-79
2023/08/31 05:22:22;;;;;;;8.75;3.63;;;12.60;99.90;;;;;;5010281;28;20038;-79
2023/08/31 05:28:16;;;;;;;7.72;3.53;;;;;;;;;;5025665;28;20029;-80
2023/08/31 05:34:18;;;;;;;7.28;2.95;;;12.60;99.90;;;;;;5016418;28;20033;-80
2023/08/31 05:36:52;;;;;;;8.35;3.28;;;12.60;99.90;;;;;;5021603;28;20049;-80
2023/08/31 05:39:18;;;;;;;8.13;3.38;;;12.60;99.90;;;;;;4969050;28;20066;-80
2023/08/31 05:42:33;;;;;;;8.48;3.58;;;12.70;99.90;;;;;;5015381;28;20054;-81
2023/08/31 05:45:38;;;;;;;8.38;4.25;;;12.70;99.90;;;;;;5013257;28;20085;-80
2023/08/31 05:52:21;;;;;;;9.88;3.50;;;12.70;99.90;;;;;;5006183;28;20117;-80
2023/08/31 05:55:20;;;;;;;8.80;3.33;;;12.80;99.90;;;;;;5015109;28;20096;-80
2023/08/31 06:01:07;;;;;;;7.10;2.97;;;12.90;99.90;;;;;;5018157;28;20036;-80
2023/08/31 06:03:45;;;;;;;6.95;3.63;;;12.90;99.90;;;;;;5008063;28;20026;-80
2023/08/31 06:06:44;;;;;;;8.05;3.25;;;12.90;99.90;;;;;;5029140;28;20026;-79
2023/08/31 06:09:52;;;;;;;9.43;3.50;;;13.00;99.90;;;;;;4996270;28;20094;-80
2023/08/31 06:12:21;;;;;;;10.00;3.88;;;13.10;99.90;;;;;;5014008;28;20577;-82
2023/08/31 06:15:04;;;;;;;8.68;3.50;;;13.10;99.90;;;;;;5017132;28;20038;-81
2023/08/31 06:17:31;;;;;;;10.88;3.67;;;13.20;99.90;;;;;;5019121;28;20040;-82
2023/08/31 06:19:57;;;;;;;8.00;3.58;;;13.30;99.90;;;;;;5012399;28;20025;-82
2023/08/31 06:22:24;;;;;;;8.25;3.35;;;13.40;99.90;;;;;;4997099;28;20495;-81
2023/08/31 06:24:51;;;;;;;5.90;3.47;;;13.40;99.90;;;;;;5019116;28;20033;-82
2023/08/31 06:27:18;;;;;;;6.85;3.75;;;;;;;;;;5015468;28;20427;-82
2023/08/31 06:29:44;;;;;;;9.25;3.83;;;;;;;;;;5018125;28;20026;-83
2023/08/31 06:32:10;;;;;;;11.60;4.07;;;13.60;99.90;;;;;;5017542;28;20061;-82
2023/08/31 06:34:36;;;;;;;7.22;3.30;;;;;;;;;;5035993;28;20033;-83
2023/08/31 06:37:01;;;;;;;8.90;3.55;;;13.70;99.90;;;;;;5025306;28;21805;-87
2023/08/31 06:39:27;;;;;;;7.93;3.30;;;15.90;99.90;;;;;;5022175;28;20034;-83
2023/08/31 06:41:52;;;;;;;7.78;3.50;;;13.90;99.90;;;;;;5021342;28;20060;-84
2023/08/31 06:44:18;;;;;;;11.77;2.97;;;;;;;;;;5034288;28;20010;-84
2023/08/31 06:46:44;;;;;;;6.03;2.50;;;14.30;99.90;;;;;;5029470;28;20400;-83
2023/08/31 06:49:10;;;;;;;5.88;2.55;;;;;;;;;;5014641;28;20033;-84
2023/08/31 06:51:36;;;;;;;7.95;2.60;;;14.50;99.90;;;;;;5007497;28;20038;-84
2023/08/31 06:54:20;;;;;;;6.35;2.20;;;;;;;;;;5024780;28;20033;-82
2023/08/31 06:56:47;;;;;;;6.40;2.55;;;14.50;99.90;;;;;;5027596;28;20037;-84
2023/08/31 06:59:12;;;;;;;5.15;2.42;;;14.70;99.90;;;;;;5024111;28;20034;-83
2023/08/31 07:01:38;;;;;;;6.10;2.33;;;14.70;99.90;;;;;;5017151;28;20117;-80
2023/08/31 07:04:04;;;;;;;7.03;2.47;;;14.80;99.90;;;;;;5017236;28;20044;-82
2023/08/31 07:06:29;;;;;;;9.43;2.35;;;15.00;99.90;;;;;;5015365;28;20030;-83
2023/08/31 07:08:55;;;;;;;9.43;3.33;;;15.20;99.90;;;;;;4968886;28;20030;-82
2023/08/31 07:11:21;;;;;;;6.18;2.72;;;15.30;99.90;;;;;;5026230;28;20026;-82
2023/08/31 07:13:46;;;;;;;10.35;2.70;;;15.40;99.90;;;;;;5026511;28;20101;-84
2023/08/31 07:16:12;;;;;;;7.50;2.20;;;15.50;99.90;;;;;;5035773;28;20026;-86
2023/08/31 07:18:38;;;;;;;5.80;2.63;;;;;;;;;;4994864;28;20038;-84
2023/08/31 07:21:07;;;;;;;7.55;2.28;;;15.50;99.90;;;;;;4991216;28;20025;-86
2023/08/31 07:23:34;;;;;;;9.80;2.53;;;;;;;;;;4997173;28;20034;-84
2023/08/31 07:26:00;;;;;;;6.65;2.42;;;15.70;99.90;;;;;;5015933;28;20068;-88
2023/08/31 07:28:26;;;;;;;9.73;2.60;;;;;;;;;;5028158;28;20026;-86
2023/08/31 07:31:06;;;;;;;6.95;2.33;;;15.70;99.90;;;;;;5031346;28;20060;-83
2023/08/31 07:33:47;;;;;;;9.98;2.67;;;;;;;;;;5021923;28;20495;-86
2023/08/31 07:36:12;;;;;;;4.15;2.35;;;15.90;99.90;;;;;;5016901;28;20021;-84
2023/08/31 07:38:38;;;;;;;10.07;3.20;;;15.90;99.90;;;;;;5004950;28;20030;-89
2023/08/31 07:41:04;;;;;;;6.68;2.17;;;16.10;99.90;;;;;;4983842;28;20029;-83
2023/08/31 07:43:29;;;;;;;8.75;2.55;;;16.10;99.90;;;;;;5000419;28;20467;-82
2023/08/31 07:45:55;;;;;;;9.05;2.65;;;16.40;99.90;;;;;;4996485;28;20085;-82
2023/08/31 07:48:21;;;;;;;5.68;2.08;;;16.50;99.90;;;;;;5005714;28;20029;-83
2023/08/31 07:50:48;;;;;;;5.63;2.10;;;16.60;99.90;;;;;;5010247;28;20036;-90
2023/08/31 07:53:14;;;;;;;5.05;1.83;;;16.60;99.90;;;;;;5013564;28;20046;-88
2023/08/31 07:55:40;;;;;;;4.85;2.28;;;16.60;99.90;;;;;;5032326;28;20026;-84
2023/08/31 07:58:06;;;;;;;10.48;3.75;;;;;;;;;;5001879;28;20407;-82
2023/08/31 08:00:32;;;;;;;11.13;2.58;;;;;;;;;;5013759;28;20021;-87
2023/08/31 08:02:58;;;;;;;9.02;2.15;;;16.90;99.90;;;;;;5004719;28;20053;-89
2023/08/31 08:05:23;;;;;;;4.50;1.92;;;16.90;99.90;;;;;;5014272;28;20021;-83
2023/08/31 08:07:49;;;;;;;13.80;3.13;;;16.90;99.90;;;;;;5008785;28;20026;-86
2023/08/31 08:10:15;;;;;;;6.30;1.73;;;;;;;;;;5003731;28;20157;-81
2023/08/31 08:12:46;;;;;;;9.13;2.92;;;17.10;99.90;;;;;;5013593;28;20065;-83
2023/08/31 08:15:12;;;;;;;4.55;2.10;;;17.10;99.90;;;;;;4991941;28;20049;-82
2023/08/31 08:17:38;;;;;;;8.55;2.55;;;;;;;;;;5005657;28;20060;-82
2023/08/31 08:20:06;;;;;;;7.15;2.10;;;17.30;99.90;;;;;;5024631;28;20093;-82
2023/08/31 08:22:32;;;;;;;7.68;2.55;;;;;;;;;;5005348;28;20384;-85
2023/08/31 08:24:58;;;;;;;4.78;2.00;;;17.80;99.90;;;;;;5011362;28;20022;-83
2023/08/31 08:27:24;;;;;;;6.50;2.08;;;17.80;99.90;;;;;;4990778;28;20038;-83
2023/08/31 08:29:49;;;;;;;5.30;2.08;;;;;;;;;;5011648;28;20056;-83
2023/08/31 08:32:15;;;;;;;6.50;2.30;;;18.00;99.90;;;;;;4990263;28;20044;-85
2023/08/31 08:34:42;;;;;;;7.38;1.80;;;18.00;99.90;;;;;;5004408;28;20055;-86
2023/08/31 08:37:08;;;;;;;6.13;1.90;;;17.90;99.90;;;;;;5000466;28;20095;-82
2023/08/31 08:39:33;;;;;;;8.90;2.78;;;17.90;99.90;;;;;;5010258;28;20033;-82
2023/08/31 08:41:59;;;;;;;6.82;1.85;;;;;;;;;;5002679;28;20030;-86
2023/08/31 08:44:26;;;;;;;5.28;1.60;;;;;;;;;;5007924;28;20032;-84
2023/08/31 08:46:52;;;;;;;4.60;1.83;;;;;;;;;;5020579;28;20029;-84
2023/08/31 08:49:19;;;;;;;9.07;2.95;;;17.80;99.90;;;;;;5018197;28;20045;-87
2023/08/31 08:51:46;;;;;;;8.68;1.95;;;17.70;99.90;;;;;;5014230;28;20474;-83
2023/08/31 08:54:13;;;;;;;6.78;2.15;;;;;;;;;;4996450;28;20124;-85
2023/08/31 08:56:39;;;;;;;10.63;2.22;;;;;;;;;;5018337;28;20093;-83
2023/08/31 08:59:05;;;;;;;6.90;2.45;;;;;;;;;;5030220;28;20048;-85
2023/08/31 09:01:34;;;;;;;4.55;2.00;;;18.00;99.90;;;;;;5032621;28;20033;-92
2023/08/31 09:04:00;;;;;;;8.18;2.30;;;18.10;99.90;;;;;;5033011;28;20041;-92
2023/08/31 09:06:27;;;;;;;9.27;2.42;;;18.40;99.90;;;;;;5030573;28;20573;-91
2023/08/31 09:08:57;;;;;;;7.00;1.83;;;18.40;99.90;;;;;;5006877;28;20034;-83
2023/08/31 09:11:23;;;;;;;7.47;2.30;;;18.70;99.90;;;;;;5018566;28;20057;-83
2023/08/31 09:13:52;;;;;;;7.90;3.10;;;18.80;99.90;;;;;;4996953;28;20030;-81
2023/08/31 09:16:31;;;;;;;5.50;2.05;;;18.80;99.90;;;;;;4999969;28;20026;-86
2023/08/31 09:18:57;;;;;;;8.77;2.90;;;19.00;99.90;;;;;;4996854;28;20031;-84
2023/08/31 09:21:35;;;;;;;10.55;3.42;;;21.80;99.90;;;;;;5013750;28;20026;-85
2023/08/31 09:24:02;;;;;;;8.02;2.58;;;19.10;99.90;;;;;;4998477;28;20029;-85
2023/08/31 09:26:28;;;;;;;9.50;2.70;;;;;;;;;;5001567;28;20037;-86
2023/08/31 09:28:54;;;;;;;6.55;2.42;;;;;;;;;;5001644;28;20054;-88
2023/08/31 09:31:21;;;;;;;7.88;2.22;;;;;;;;;;5010715;28;20045;-87
2023/08/31 09:33:52;;;;;;;6.07;2.42;;;19.50;99.90;;;;;;5013768;28;20021;-88
2023/08/31 09:36:19;;;;;;;6.47;2.42;;;;;;;;;;5012068;28;20033;-85
2023/08/31 09:38:45;;;;;;;7.35;2.00;;;19.90;99.90;;;;;;5016144;28;20030;-80
2023/08/31 09:41:11;;;;;;;6.93;2.10;;;;;;;;;;4997147;28;20041;-84
2023/08/31 09:43:37;;;;;;;6.07;2.30;;;;;;;;;;5013685;28;20041;-80
2023/08/31 09:46:04;;;;;;;5.50;2.08;;;20.00;99.90;;;;;;5011288;28;20631;-83
2023/08/31 09:48:30;;;;;;;7.18;2.25;;;19.70;99.90;;;;;;5012700;28;20030;-82
2023/08/31 09:50:57;;;;;;;6.88;2.75;;;;;;;;;;5013291;28;20165;-84
2023/08/31 09:53:28;;;;;;;8.48;2.20;;;19.40;99.90;;;;;;5011764;28;20491;-81
2023/08/31 09:55:56;;;;;;;8.52;2.55;;;19.20;99.90;;;;;;4992626;28;20471;-83
2023/08/31 09:58:22;;;;;;;6.78;2.08;;;19.10;99.90;;;;;;4992050;28;20030;-82
2023/08/31 10:00:52;;;;;;;7.93;2.70;;;21.10;99.90;;;;;;5006362;28;20030;-86
2023/08/31 10:03:20;;;;;;;6.90;3.38;;;19.20;99.90;;;;;;4995094;28;20049;-83
2023/08/31 10:05:47;;;;;;;5.75;2.03;;;19.20;99.90;;;;;;5010883;28;20041;-81
2023/08/31 10:08:14;;;;;;;6.15;2.25;;;19.10;99.90;;;;;;5017381;28;20022;-91
2023/08/31 10:10:40;;;;;;;6.22;2.63;;;;;;;;;;5030236;28;20035;-86
2023/08/31 10:13:06;;;;;;;7.90;2.20;;;19.00;99.90;;;;;;5018785;28;20038;-82
2023/08/31 10:15:33;;;;;;;7.50;2.17;;;19.10;99.90;;;;;;5005204;28;20075;-87
2023/08/31 10:18:04;;;;;;;6.25;2.22;;;19.30;99.90;;;;;;5010177;28;20040;-89
2023/08/31 10:20:31;;;;;;;6.60;2.70;;;;;;;;;;4998283;28;20029;-82
2023/08/31 10:23:06;;;;;;;6.80;2.10;;;19.40;99.90;;;;;;5000082;28;20415;-82
2023/08/31 10:25:50;;;;;;;6.75;2.45;;;19.30;99.90;;;;;;5010579;28;20487;-82
2023/08/31 10:32:29;;;;;;;8.23;2.10;;;19.00;99.90;;;;;;5000027;28;20045;-81
2023/08/31 10:35:59;;;;;;;7.50;1.90;;;18.90;99.90;;;;;;5007100;28;20057;-81
2023/08/31 10:55:05;;;;;;;7.50;2.13;;;;;;;;;;5039948;23;20076;-86
2023/08/31 10:57:31;;;;;;;7.45;2.30;;;;;;;;;;5018038;28;20944;-87
2023/08/31 10:59:58;;;;;;;8.20;2.13;;;;;;;;;;5031824;28;20033;-87
2023/08/31 11:02:28;;;;;;;7.88;2.50;;;;;;;;;;5030717;28;20120;-87
2023/08/31 11:04:59;;;;;;;6.30;2.20;;;20.10;99.90;;;;;;5018530;28;20284;-87
2023/08/31 11:07:29;;;;;;;8.38;3.20;;;20.10;99.90;;;;;;5024290;28;20766;-87
2023/08/31 11:10:17;;;;;;;11.07;2.90;;;20.10;99.90;;;;;;5044643;28;20010;-88
2023/08/31 11:12:45;;;;;;;5.78;2.50;;;20.10;99.90;;;;;;5043304;28;20029;-87
2023/08/31 11:15:18;;;;;;;6.85;1.98;;;20.10;99.90;;;;;;5049128;28;20009;-88
2023/08/31 11:17:44;;;;;;;7.25;2.35;;;20.10;99.90;;;;;;5047995;28;20098;-87
2023/08/31 11:20:15;;;;;;;5.53;2.17;;;20.10;99.90;;;;;;5042766;28;20033;-86
2023/08/31 11:22:49;;;;;;;5.95;2.13;;;20.00;99.90;;;;;;5038704;28;20026;-88
2023/08/31 11:25:15;;;;;;;4.80;1.90;;;;;;;;;;5047464;28;20013;-88
2023/08/31 11:27:41;;;;;;;5.82;2.15;;;;;;;;;;5028594;28;20040;-84
2023/08/31 11:30:15;;;;;;;8.40;2.80;;;20.00;99.90;;;;;;5032413;28;20041;-82
2023/08/31 11:32:49;;;;;;;9.73;3.30;;;19.90;99.90;;;;;;5021863;28;20029;-84
2023/08/31 11:35:18;;;;;;;6.05;2.22;;;19.90;99.90;;;;;;5024854;28;20025;-83
2023/08/31 11:37:48;;;;;;;5.82;1.98;;;20.00;99.90;;;;;;5034640;28;20084;-83
2023/08/31 11:40:17;;;;;;;;;;;20.00;99.90;;;;;;5026393;28;20052;-84
2023/08/31 11:42:43;;;;;;;6.07;2.10;;;20.10;99.90;;;;;;5033182;28;19917;-82
2023/08/31 11:45:12;;;;;;;4.95;2.00;;;20.10;99.90;;;;;;5028400;28;20054;-82
2023/08/31 11:47:39;;;;;;;7.60;2.38;;;;;;;;;;5027942;28;20237;-79
2023/08/31 11:50:06;;;;;;;8.43;3.05;;;20.10;99.90;;;;;;5021437;28;20034;-81
2023/08/31 11:52:32;;;;;;;5.18;1.80;;;;;;;;;;5017657;28;20022;-81
2023/08/31 11:54:58;;;;;;;7.95;2.28;;;;;;;;;;5038228;28;20059;-82
2023/08/31 11:57:28;;;;;;;6.05;2.10;;;20.50;99.90;;;;;;5021947;28;20053;-82
2023/08/31 11:59:55;;;;;;;7.40;2.72;;;20.50;99.90;;;;;;4997322;28;20041;-81
2023/08/31 12:02:22;;;;;;;7.15;2.42;;;;;;;;;;5013547;28;20111;-80
2023/08/31 12:04:48;;;;;;;6.75;2.33;;;;;;;;;;5015525;28;20183;-82
2023/08/31 12:07:18;;;;;;;5.78;1.80;;;21.10;99.90;;;;;;5006497;28;20025;-80
2023/08/31 12:09:45;;;;;;;5.57;2.10;;;20.80;99.90;;;;;;5017941;28;20025;-81
2023/08/31 12:12:11;;;;;;;9.07;2.38;;;;;;;;;;5020637;28;20113;-82
2023/08/31 12:14:41;;;;;;;7.60;2.10;;;;;;;;;;5001606;28;20088;-81
2023/08/31 12:17:08;;;;;;;8.52;2.20;;;21.50;99.70;;;;;;5006864;28;20036;-84
2023/08/31 12:19:36;;;;;;;6.45;2.20;;;21.20;99.90;;;;;;5025586;28;20037;-80
2023/08/31 12:22:03;;;;;;;7.32;2.40;;;;;;;;;;5023466;28;20060;-82
2023/08/31 12:24:29;;;;;;;8.60;2.60;;;21.30;99.90;;;;;;5022094;28;20048;-80
2023/08/31 12:26:56;;;;;;;7.88;2.75;;;;;;;;;;4999536;28;20465;-82
2023/08/31 12:29:22;;;;;;;7.47;2.30;;;;;;;;;;5019136;28;20032;-82
2023/08/31 12:31:49;;;;;;;7.10;2.30;;;;;;;;;;5017706;28;20492;-82
2023/08/31 12:34:15;;;;;;;7.75;2.15;;;21.70;99.30;;;;;;5028107;28;20056;-82
2023/08/31 12:36:41;;;;;;;5.82;2.08;;;;;;;;;;5007678;28;20064;-82
2023/08/31 12:39:09;;;;;;;5.20;2.47;;;21.50;98.50;;;;;;5020280;28;20099;-82
2023/08/31 12:41:36;;;;;;;6.53;2.63;;;;;;;;;;5018758;28;20044;-84
2023/08/31 12:44:03;;;;;;;4.55;1.80;;;;;;;;;;5011497;28;20116;-84
2023/08/31 12:46:29;;;;;;;10.43;2.85;;;;;;;;;;5012225;28;20094;-85
2023/08/31 12:48:55;;;;;;;8.18;2.40;;;21.10;99.80;;;;;;5008617;28;20040;-86
2023/08/31 12:51:20;;;;;;;4.50;1.95;;;21.00;99.60;;;;;;5002343;28;20101;-85
2023/08/31 12:53:46;;;;;;;10.43;2.00;;;;;;;;;;5039514;28;20025;-87
2023/08/31 12:56:13;;;;;;;8.63;2.67;;;;;;;;;;5029779;28;20104;-86
2023/08/31 12:58:39;;;;;;;7.45;2.42;;;20.80;99.90;;;;;;5040378;28;20025;-89
2023/08/31 13:01:05;;;;;;;7.30;2.63;;;20.90;99.90;;;;;;5039875;28;20024;-89
2023/08/31 13:03:30;;;;;;;5.40;2.10;;;21.10;99.90;;;;;;5033302;28;20693;-89
2023/08/31 13:05:57;;;;;;;9.32;2.30;;;;;;;;;;5027236;28;20068;-89
2023/08/31 13:08:23;;;;;;;8.88;2.38;;;;;;;;;;5024004;28;20056;-89
2023/08/31 13:10:53;;;;;;;6.93;2.00;;;20.90;99.90;;;;;;5027613;28;20018;-89
2023/08/31 13:13:19;;;;;;;7.13;2.20;;;;;;;;;;5015511;28;20044;-89
2023/08/31 13:15:49;;;;;;;9.07;2.35;;;20.70;99.90;;;;;;5018568;28;20033;-87
2023/08/31 13:18:15;;;;;;;5.13;2.33;;;;;;;;;;5034673;28;20032;-89
2023/08/31 13:20:42;;;;;;;7.00;2.20;;;;;;;;;;5019986;28;20033;-88
2023/08/31 13:23:08;;;;;;;6.85;2.50;;;;;;;;;;5017289;28;20040;-88
2023/08/31 13:25:35;;;;;;;9.10;2.85;;;20.20;99.90;;;;;;5032686;28;20021;-88
2023/08/31 13:28:00;;;;;;;6.03;2.22;;;20.20;99.90;;;;;;5016450;28;20177;-88
2023/08/31 13:30:26;;;;;;;7.72;2.67;;;20.40;99.90;;;;;;5029400;28;20029;-87
2023/08/31 13:32:52;;;;;;;11.10;2.55;;;20.40;99.90;;;;;;5015423;28;20508;-89
2023/08/31 13:35:18;;;;;;;6.57;2.20;;;20.60;99.90;;;;;;5022945;28;20040;-88
2023/08/31 13:40:11;;;;;;;9.35;2.25;;;20.90;99.90;;;;;;5026395;28;20064;-81
2023/08/31 13:42:48;;;;;;;8.20;2.70;;;20.90;99.90;;;;;;5007306;28;20041;-81
2023/08/31 13:45:14;;;;;;;5.93;2.03;;;20.80;99.90;;;;;;5009764;28;20432;-82
2023/08/31 13:47:46;;;;;;;8.82;2.28;;;;;;;;;;5037096;28;20048;-82
2023/08/31 13:50:11;;;;;;;10.45;2.70;;;20.50;99.90;;;;;;4990752;28;20056;-82
2023/08/31 13:52:37;;;;;;;8.68;2.55;;;20.20;99.90;;;;;;5007368;28;20029;-80
2023/08/31 13:55:03;;;;;;;7.32;2.58;;;20.10;99.90;;;;;;5001479;28;20026;-81
2023/08/31 13:57:29;;;;;;;7.13;2.25;;;;;;;;;;5011001;28;20049;-83
2023/08/31 13:59:55;;;;;;;11.75;2.60;;;;;;;;;;5001794;28;20048;-83
2023/08/31 14:02:21;;;;;;;7.97;2.58;;;;;;;;;;5016767;28;20053;-79
2023/08/31 14:04:47;;;;;;;5.57;2.13;;;20.00;99.90;;;;;;4994867;28;20031;-81
2023/08/31 14:07:13;;;;;;;9.52;2.67;;;;;;;;;;4995417;28;20146;-81
2023/08/31 14:09:39;;;;;;;7.43;2.45;;;20.20;99.90;;;;;;4996058;28;20029;-81
2023/08/31 14:12:05;;;;;;;8.52;2.92;;;20.20;99.90;;;;;;5016113;28;20034;-82